Time;durP1;ratioP1;P1;durP2;ratioP2;P2;SDS_P1;SDS_P2;PMS_P1;PMS_P2;Temp;Humidity;BMP_temperature;BMP_pressure;BME280_temperature;BME280_humidity;BME280_pressure;Samples;Min_cycle;Max_cycle;Signal;HPM_P1;HPM_P2
2024/02/17 00:02:08;;;;;;;5.35;4.50;;;;;;;;;;10320286;28;20040;-75
2024/02/17 00:07:11;;;;;;;9.43;4.20;;;;;;;;;;10313968;28;20042;-76
2024/02/17 00:12:16;;;;;;;4.00;3.60;;;;;;;;;;10315397;28;20046;-75
2024/02/17 00:17:19;;;;;;;4.70;3.92;;;;;;;;;;10328451;28;20069;-75
2024/02/17 00:22:22;;;;;;;5.35;3.72;;;;;;;;;;10330808;28;20056;-75
2024/02/17 00:27:27;;;;;;;5.78;3.72;;;;;;;;;;10321823;28;20046;-76
2024/02/17 00:32:30;;;;;;;5.13;4.25;;;;;;;;;;10323710;28;20113;-75
2024/02/17 00:37:34;;;;;;;5.93;4.57;;;;;;;;;;10321293;28;20054;-75
2024/02/17 00:42:38;;;;;;;5.45;4.38;;;;;;;;;;10320377;28;20427;-76
2024/02/17 00:47:41;;;;;;;6.38;4.90;;;;;;;;;;10320564;28;20077;-76
2024/02/17 00:52:45;;;;;;;6.35;4.47;;;;;;;;;;10321793;28;20522;-75
2024/02/17 00:57:50;;;;;;;6.57;5.13;;;;;;;;;;10321313;28;20030;-75
2024/02/17 01:02:53;;;;;;;6.60;5.15;;;;;;;;;;10293246;28;20046;-76
2024/02/17 01:07:56;;;;;;;6.20;4.88;;;;;;;;;;10311122;28;20073;-75
2024/02/17 01:13:01;;;;;;;6.82;4.95;;;;;;;;;;10318824;28;20042;-76
2024/02/17 01:18:05;;;;;;;7.32;4.63;;;;;;;;;;10321553;28;20060;-77
2024/02/17 01:23:08;;;;;;;5.70;4.47;;;;;;;;;;10328007;28;20057;-75
2024/02/17 01:28:13;;;;;;;7.18;5.25;;;;;;;;;;10315054;28;20042;-76
2024/02/17 01:33:16;;;;;;;5.93;4.57;;;;;;;;;;10326429;28;20053;-75
2024/02/17 01:38:20;;;;;;;5.07;4.15;;;;;;;;;;10325841;28;20109;-75
2024/02/17 01:43:24;;;;;;;6.15;4.85;;;;;;;;;;10318339;28;20058;-75
2024/02/17 01:48:28;;;;;;;6.85;4.85;;;;;;;;;;10324526;28;20050;-75
2024/02/17 01:53:32;;;;;;;6.10;4.72;;;;;;;;;;10309403;28;20048;-75
2024/02/17 01:58:37;;;;;;;8.90;5.75;;;;;;;;;;10305637;28;20053;-75
2024/02/17 02:03:40;;;;;;;7.50;5.45;;;;;;;;;;10325298;28;20460;-75
2024/02/17 02:08:43;;;;;;;6.20;4.70;;;;;;;;;;10322515;28;20058;-75
2024/02/17 02:13:48;;;;;;;7.15;4.80;;;;;;;;;;10307770;28;20610;-75
2024/02/17 02:18:51;;;;;;;7.20;4.78;;;;;;;;;;10313802;28;20041;-75
2024/02/17 02:23:55;;;;;;;5.97;4.40;;;;;;;;;;10315193;28;20158;-76
2024/02/17 02:29:00;;;;;;;4.00;3.60;;;;;;;;;;10312941;28;20129;-75
2024/02/17 02:34:03;;;;;;;5.55;3.97;;;;;;;;;;10289384;28;20101;-76
2024/02/17 02:39:06;;;;;;;5.35;3.40;;;;;;;;;;10319256;28;20054;-76
2024/02/17 02:44:13;;;;;;;6.28;4.43;;;;;;;;;;10319003;28;20523;-76
2024/02/17 02:49:16;;;;;;;;;;;;;;;;;;10315162;28;20129;-76
2024/02/17 02:54:21;;;;;;;5.38;3.80;;;;;;;;;;10319677;28;19933;-76
2024/02/17 02:59:26;;;;;;;6.03;4.77;;;;;;;;;;10298716;28;20062;-76
2024/02/17 03:04:29;;;;;;;5.40;4.32;;;;;;;;;;10318362;28;20141;-75
2024/02/17 03:09:33;;;;;;;6.75;4.50;;;;;;;;;;10316147;28;20420;-76
2024/02/17 03:14:39;;;;;;;5.80;4.43;;;;;;;;;;10312985;28;20050;-75
2024/02/17 03:19:43;;;;;;;8.18;4.15;;;;;;;;;;10313814;28;20090;-76
2024/02/17 03:24:46;;;;;;;5.68;4.22;;;;;;;;;;10317505;28;20062;-75
2024/02/17 03:29:51;;;;;;;7.05;4.72;;;;;;;;;;10315393;28;20066;-75
2024/02/17 03:34:54;;;;;;;7.15;4.88;;;;;;;;;;10312556;28;20038;-76
2024/02/17 03:39:58;;;;;;;7.80;4.95;;;;;;;;;;10311817;28;20042;-76
2024/02/17 03:45:03;;;;;;;6.32;4.72;;;;;;;;;;10313065;28;20050;-76
2024/02/17 03:50:07;;;;;;;6.07;4.68;;;;;;;;;;10307501;28;20121;-76
2024/02/17 03:55:11;;;;;;;6.63;4.85;;;;;;;;;;10319554;28;20050;-75
2024/02/17 04:00:16;;;;;;;7.25;5.18;;;;;;;;;;10318904;28;20082;-75
2024/02/17 04:05:19;;;;;;;8.73;6.07;;;;;;;;;;10313651;28;20082;-75
2024/02/17 04:10:23;;;;;;;8.25;5.65;;;;;;;;;;10305869;28;20656;-75
2024/02/17 04:15:28;;;;;;;7.97;4.85;;;;;;;;;;10316905;28;20070;-76
2024/02/17 04:20:31;;;;;;;6.43;4.57;;;;;;;;;;10311935;28;20042;-75
2024/02/17 04:25:36;;;;;;;4.97;4.05;;;;;;;;;;10314802;28;20057;-76
2024/02/17 04:30:40;;;;;;;7.00;4.40;;;;;;;;;;10321821;28;20076;-76
2024/02/17 04:35:44;;;;;;;6.05;4.55;;;;;;;;;;10301093;28;20555;-75
2024/02/17 04:40:47;;;;;;;7.13;4.10;;;;;;;;;;10304971;28;20039;-76
2024/02/17 04:45:51;;;;;;;8.45;4.85;;;;;;;;;;10319436;28;20125;-76
2024/02/17 04:50:55;;;;;;;11.93;6.28;;;;;;;;;;10313046;28;20070;-75
2024/02/17 04:55:58;;;;;;;5.63;4.22;;;;;;;;;;10315326;28;20129;-75
2024/02/17 05:01:04;;;;;;;6.82;4.00;;;;;;;;;;10317847;28;20049;-75
2024/02/17 05:06:08;;;;;;;6.67;3.83;;;;;;;;;;10324019;28;20073;-75
2024/02/17 05:11:13;;;;;;;6.22;3.72;;;;;;;;;;10318377;28;20074;-76
2024/02/17 05:16:57;;;;;;;5.55;3.92;;;;;;;;;;10468177;22;20644;-73
2024/02/17 05:22:01;;;;;;;5.18;3.78;;;;;;;;;;10362250;28;20140;-75
2024/02/17 05:27:06;;;;;;;5.45;4.18;;;;;;;;;;10363792;28;20042;-74
2024/02/17 05:32:09;;;;;;;5.80;4.10;;;;;;;;;;10356366;28;20132;-74
2024/02/17 05:37:14;;;;;;;4.65;3.65;;;;;;;;;;10367299;28;20707;-75
2024/02/17 05:42:20;;;;;;;3.70;2.88;;;;;;;;;;10356264;28;20120;-75
2024/02/17 05:47:24;;;;;;;5.18;3.00;;;;;;;;;;10376948;28;20050;-74
2024/02/17 05:52:29;;;;;;;3.10;2.53;;;;;;;;;;10363517;28;20501;-75
2024/02/17 05:57:32;;;;;;;5.15;2.90;;;;;;;;;;10373599;28;20073;-74
2024/02/17 06:02:36;;;;;;;3.85;2.80;;;;;;;;;;10370119;28;20046;-75
2024/02/17 06:07:41;;;;;;;3.88;3.05;;;;;;;;;;10370712;28;20421;-74
2024/02/17 06:12:44;;;;;;;3.90;3.13;;;;;;;;;;10376416;28;20090;-74
2024/02/17 06:21:10;;;;;;;5.13;3.08;;;;;;;;;;10373962;28;20447;-74
2024/02/17 06:23:12;;;;;;;4.40;2.85;;;;;;;;;;10369487;28;20057;-74
2024/02/17 06:28:15;;;;;;;3.97;2.65;;;;;;;;;;10374881;28;20063;-74
2024/02/17 06:33:19;;;;;;;5.47;2.30;;;;;;;;;;10369320;28;20411;-74
2024/02/17 06:38:23;;;;;;;3.53;2.67;;;;;;;;;;10375532;28;20136;-74
2024/02/17 06:43:27;;;;;;;3.78;2.70;;;;;;;;;;10373670;28;20065;-74
2024/02/17 06:48:30;;;;;;;5.15;2.78;;;;;;;;;;10375257;28;20045;-74
2024/02/17 06:53:35;;;;;;;4.90;3.33;;;;;;;;;;10373802;28;20046;-74
2024/02/17 06:58:38;;;;;;;5.88;3.92;;;;;;;;;;10358867;28;20715;-74
2024/02/17 07:03:41;;;;;;;5.45;3.80;;;;;;;;;;10372330;28;20042;-74
2024/02/17 07:08:46;;;;;;;4.68;3.63;;;;;;;;;;10365745;28;20464;-74
2024/02/17 07:13:49;;;;;;;3.78;3.10;;;;;;;;;;10369256;28;20077;-74
2024/02/17 07:18:54;;;;;;;3.20;2.88;;;;;;;;;;10362667;28;20529;-74
2024/02/17 07:23:59;;;;;;;4.97;3.45;;;;;;;;;;10366691;28;20068;-74
2024/02/17 07:29:02;;;;;;;3.85;2.80;;;;;;;;;;10362119;28;20049;-74
2024/02/17 07:34:05;;;;;;;5.15;2.60;;;;;;;;;;10359056;28;20048;-74
2024/02/17 07:39:10;;;;;;;3.50;2.58;;;;;;;;;;10378101;28;20702;-74
2024/02/17 07:44:14;;;;;;;3.13;2.78;;;;;;;;;;10367543;28;20141;-74
2024/02/17 07:49:17;;;;;;;3.25;2.30;;;;;;;;;;10372484;28;20049;-74
2024/02/17 07:54:22;;;;;;;2.88;2.30;;;;;;;;;;10356621;28;20053;-74
2024/02/17 07:59:25;;;;;;;2.97;2.40;;;;;;;;;;10352332;28;20073;-74
2024/02/17 08:04:28;;;;;;;2.95;2.50;;;;;;;;;;10364440;28;20137;-74
2024/02/17 08:09:33;;;;;;;3.50;2.40;;;;;;;;;;10360989;28;20074;-74
2024/02/17 08:14:36;;;;;;;6.00;2.45;;;;;;;;;;10361136;28;20130;-74
2024/02/17 08:19:39;;;;;;;3.40;2.47;;;;;;;;;;10349132;28;20052;-74
2024/02/17 08:24:44;;;;;;;3.85;2.47;;;;;;;;;;10356206;28;20065;-75
2024/02/17 08:29:47;;;;;;;4.40;3.42;;;;;;;;;;10350314;28;20046;-74
2024/02/17 08:34:50;;;;;;;5.85;3.30;;;;;;;;;;10351251;28;20046;-72
2024/02/17 08:39:55;;;;;;;4.70;2.67;;;;;;;;;;10356104;28;20057;-73
2024/02/17 08:44:59;;;;;;;2.97;2.17;;;;;;;;;;10345372;28;20049;-72
2024/02/17 08:50:02;;;;;;;3.15;2.30;;;;;;;;;;10347717;28;20055;-75
2024/02/17 08:55:07;;;;;;;3.03;2.30;;;;;;;;;;10344968;28;20050;-74
2024/02/17 09:00:12;;;;;;;3.60;2.30;;;;;;;;;;10346363;28;20734;-74
2024/02/17 09:05:15;;;;;;;3.67;2.50;;;;;;;;;;10355615;28;20133;-74
2024/02/17 09:10:20;;;;;;;5.93;2.10;;;;;;;;;;10350291;28;20134;-74
2024/02/17 09:15:23;;;;;;;5.70;2.75;;;;;;;;;;10354923;28;20050;-74
2024/02/17 09:20:27;;;;;;;3.58;2.50;;;;;;;;;;10347467;28;20057;-74
2024/02/17 09:25:31;;;;;;;2.70;2.17;;;;;;;;;;10347259;28;20042;-74
2024/02/17 09:30:35;;;;;;;3.20;2.67;;;;;;;;;;10343462;28;20054;-75
2024/02/17 09:35:38;;;;;;;4.75;2.50;;;;;;;;;;10351839;28;20086;-74
2024/02/17 09:40:42;;;;;;;4.75;2.35;;;;;;;;;;10366501;28;20045;-75
2024/02/17 09:45:47;;;;;;;5.18;3.47;;;;;;;;;;10384342;28;20049;-73
2024/02/17 09:50:53;;;;;;;4.30;3.17;;;;;;;;;;10384042;28;20046;-73
2024/02/17 09:55:58;;;;;;;4.60;3.15;;;;;;;;;;10372686;28;20050;-73
2024/02/17 10:01:01;;;;;;;6.72;5.05;;;;;;;;;;10356949;28;20051;-73
2024/02/17 10:06:11;;;;;;;5.13;4.22;;;;;;;;;;10366903;28;20384;-73
2024/02/17 10:11:15;;;;;;;6.22;3.58;;;;;;;;;;10373129;28;20119;-73
2024/02/17 10:16:19;;;;;;;4.50;3.50;;;;;;;;;;10356499;28;20056;-73
2024/02/17 10:21:23;;;;;;;5.00;3.38;;;;;;;;;;10358561;28;20046;-73
2024/02/17 10:26:28;;;;;;;5.18;3.40;;;;;;;;;;10361633;28;20626;-73
2024/02/17 10:31:31;;;;;;;8.55;5.32;;;;;;;;;;10358282;28;20516;-73
2024/02/17 10:36:34;;;;;;;6.78;3.72;;;;;;;;;;10366903;28;20053;-73
2024/02/17 10:41:39;;;;;;;9.07;5.18;;;;;;;;;;10370829;28;20633;-73
2024/02/17 10:46:47;;;;;;;4.88;3.63;;;;;;;;;;10358491;28;20057;-73
2024/02/17 10:51:56;;;;;;;4.85;3.97;;;;;;;;;;10356841;28;20046;-73
2024/02/17 10:57:04;;;;;;;7.90;5.47;;;;;;;;;;10348437;28;20037;-73
2024/02/17 11:02:08;;;;;;;4.70;3.35;;;;;;;;;;10342304;28;20043;-73
2024/02/17 11:07:14;;;;;;;4.63;2.92;;;;;;;;;;10351232;28;20046;-73
2024/02/17 11:12:37;;;;;;;6.88;5.28;;;;;;;;;;10372735;23;20128;-73
2024/02/17 11:17:42;;;;;;;5.30;3.50;;;;;;;;;;10427466;28;20056;-73
2024/02/17 11:22:53;;;;;;;6.70;4.88;;;;;;;;;;10433022;28;20045;-73
2024/02/17 11:27:58;;;;;;;8.85;6.57;;;;;;;;;;10435804;28;20038;-73
2024/02/17 11:33:05;;;;;;;9.37;4.90;;;;;;;;;;10437484;28;20075;-73
2024/02/17 11:38:09;;;;;;;10.25;6.10;;;;;;;;;;10428030;28;20064;-74
2024/02/17 11:43:13;;;;;;;13.60;8.02;;;;;;;;;;10451496;28;20068;-75
2024/02/17 11:48:17;;;;;;;12.05;7.22;;;;;;;;;;10439402;28;20403;-75
2024/02/17 11:53:22;;;;;;;10.63;6.25;;;;;;;;;;10431182;28;20069;-75
2024/02/17 11:58:26;;;;;;;10.57;5.63;;;;;;;;;;10433046;28;20124;-75
2024/02/17 12:03:30;;;;;;;8.85;5.50;;;;;;;;;;10438991;28;20806;-75
2024/02/17 12:08:35;;;;;;;6.50;4.10;;;;;;;;;;10441851;28;20053;-75
2024/02/17 12:13:40;;;;;;;4.43;3.80;;;;;;;;;;10435323;28;20123;-75
2024/02/17 12:18:44;;;;;;;6.68;3.65;;;;;;;;;;10443273;28;20059;-75
2024/02/17 12:23:48;;;;;;;8.15;5.90;;;;;;;;;;10437349;28;20045;-75
2024/02/17 12:28:52;;;;;;;9.07;6.55;;;;;;;;;;10439036;28;20737;-75
2024/02/17 12:33:56;;;;;;;7.55;4.97;;;;;;;;;;10431838;28;20048;-76
2024/02/17 12:39:04;;;;;;;8.40;5.20;;;;;;;;;;10416825;28;20045;-75
2024/02/17 12:44:08;;;;;;;7.00;4.35;;;;;;;;;;10428743;28;20471;-75
2024/02/17 12:49:13;;;;;;;7.70;4.50;;;;;;;;;;10433040;28;20147;-75
2024/02/17 12:54:17;;;;;;;11.18;6.78;;;;;;;;;;10417797;28;20106;-75
2024/02/17 12:59:22;;;;;;;5.57;4.30;;;;;;;;;;10428654;28;20048;-75
2024/02/17 13:04:26;;;;;;;6.65;4.55;;;;;;;;;;10431360;28;20052;-75
2024/02/17 13:09:29;;;;;;;7.40;5.35;;;;;;;;;;10434083;28;20044;-75
2024/02/17 13:14:34;;;;;;;5.70;4.20;;;;;;;;;;10439093;28;20205;-75
2024/02/17 13:19:37;;;;;;;6.68;4.25;;;;;;;;;;10448424;28;20068;-75
2024/02/17 13:24:42;;;;;;;6.32;4.40;;;;;;;;;;10445471;28;20040;-74
2024/02/17 13:29:47;;;;;;;4.20;3.25;;;;;;;;;;10448451;28;20037;-74
2024/02/17 13:34:50;;;;;;;5.10;3.80;;;;;;;;;;10429713;28;20565;-75
2024/02/17 13:39:53;;;;;;;6.70;4.65;;;;;;;;;;10450012;28;20053;-75
2024/02/17 13:44:58;;;;;;;4.68;3.58;;;;;;;;;;10452180;28;20218;-75
2024/02/17 13:50:01;;;;;;;5.18;3.22;;;;;;;;;;10433494;28;20139;-74
2024/02/17 13:55:05;;;;;;;5.18;3.10;;;;;;;;;;10450878;28;20094;-75
2024/02/17 14:00:16;;;;;;;6.80;4.18;;;;;;;;;;10447500;28;20075;-75
2024/02/17 14:05:19;;;;;;;4.00;2.85;;;;;;;;;;10439008;28;20049;-75
2024/02/17 14:10:22;;;;;;;5.20;3.03;;;;;;;;;;10420270;28;20052;-75
2024/02/17 14:15:28;;;;;;;4.05;2.90;;;;;;;;;;10433103;28;20148;-75
2024/02/17 14:20:31;;;;;;;3.03;2.28;;;;;;;;;;10418837;28;20053;-75
2024/02/17 14:25:38;;;;;;;3.05;2.08;;;;;;;;;;10434622;28;20057;-74
2024/02/17 14:30:42;;;;;;;3.28;2.20;;;;;;;;;;10409741;28;20061;-75
2024/02/17 14:35:46;;;;;;;3.67;2.38;;;;;;;;;;10419936;28;20052;-75
2024/02/17 14:40:50;;;;;;;2.72;1.98;;;;;;;;;;10439748;28;20049;-75
2024/02/17 14:45:54;;;;;;;5.82;3.42;;;;;;;;;;10429581;28;20063;-75
2024/02/17 14:50:58;;;;;;;4.07;2.70;;;;;;;;;;10446888;28;20055;-75
2024/02/17 14:56:01;;;;;;;2.70;2.25;;;;;;;;;;10452044;28;20371;-75
2024/02/17 15:01:07;;;;;;;3.85;2.38;;;;;;;;;;10443314;28;20041;-75
2024/02/17 15:06:10;;;;;;;3.40;2.28;;;;;;;;;;10445384;28;20044;-75
2024/02/17 15:11:16;;;;;;;2.58;2.00;;;;;;;;;;10453022;28;20759;-75
2024/02/17 15:16:21;;;;;;;2.42;1.55;;;;;;;;;;10450722;28;20098;-75
2024/02/17 15:21:24;;;;;;;1.60;1.48;;;;;;;;;;10458207;28;20052;-75
2024/02/17 15:26:27;;;;;;;2.80;1.77;;;;;;;;;;10443735;28;20110;-75
2024/02/17 15:31:33;;;;;;;2.30;1.55;;;;;;;;;;10449508;28;20044;-75
2024/02/17 15:36:36;;;;;;;4.10;2.60;;;;;;;;;;10445170;28;20055;-75
2024/02/17 15:41:39;;;;;;;3.13;2.13;;;;;;;;;;10448522;28;20041;-74
2024/02/17 15:46:44;;;;;;;3.13;2.10;;;;;;;;;;10451684;28;20049;-75
2024/02/17 15:51:48;;;;;;;4.43;2.30;;;;;;;;;;10445043;28;20107;-75
2024/02/17 15:56:51;;;;;;;4.47;1.75;;;;;;;;;;10445066;28;20292;-75
2024/02/17 16:01:56;;;;;;;5.60;3.10;;;;;;;;;;10436582;28;20052;-75
2024/02/17 16:06:59;;;;;;;3.03;2.10;;;;;;;;;;10439249;28;20041;-75
2024/02/17 16:12:05;;;;;;;3.75;2.85;;;;;;;;;;10447560;28;20065;-74
2024/02/17 16:17:09;;;;;;;1.70;1.60;;;;;;;;;;10451612;28;20047;-75
2024/02/17 16:22:13;;;;;;;4.30;1.80;;;;;;;;;;10426097;28;20061;-74
2024/02/17 16:27:16;;;;;;;2.33;1.55;;;;;;;;;;10431962;28;20051;-75
2024/02/17 16:32:21;;;;;;;1.92;1.65;;;;;;;;;;10440093;28;20129;-75
2024/02/17 16:37:24;;;;;;;1.70;1.42;;;;;;;;;;10445721;28;20049;-75
2024/02/17 16:42:28;;;;;;;2.65;1.75;;;;;;;;;;10435688;28;20045;-75
2024/02/17 16:47:32;;;;;;;3.33;1.60;;;;;;;;;;10409551;28;20045;-74
2024/02/17 16:52:36;;;;;;;2.45;1.80;;;;;;;;;;10441286;28;20095;-75
2024/02/17 16:57:39;;;;;;;2.00;1.80;;;;;;;;;;10434965;28;20122;-75
2024/02/17 17:02:44;;;;;;;2.85;1.80;;;;;;;;;;10439105;28;20053;-75
2024/02/17 17:07:47;;;;;;;3.25;2.17;;;;;;;;;;10446163;28;20413;-75
2024/02/17 17:12:51;;;;;;;2.78;2.10;;;;;;;;;;10445912;22;20152;-74
2024/02/17 17:17:55;;;;;;;3.67;2.20;;;;;;;;;;10380650;28;20609;-74
2024/02/17 17:22:59;;;;;;;4.22;2.70;;;;;;;;;;10371802;28;20049;-75
2024/02/17 17:28:02;;;;;;;3.53;2.47;;;;;;;;;;10376288;28;20052;-76
2024/02/17 17:33:07;;;;;;;4.32;2.75;;;;;;;;;;10366336;28;20048;-74
2024/02/17 17:38:11;;;;;;;4.78;2.88;;;;;;;;;;10377482;28;20062;-74
2024/02/17 17:43:14;;;;;;;4.57;2.85;;;;;;;;;;10374254;28;20053;-74
2024/02/17 17:48:19;;;;;;;6.05;3.58;;;;;;;;;;10367618;28;20081;-73
2024/02/17 17:53:23;;;;;;;6.10;4.10;;;;;;;;;;10368080;28;20045;-74
2024/02/17 17:58:27;;;;;;;5.68;3.92;;;;;;;;;;10365750;28;20062;-74
2024/02/17 18:03:32;;;;;;;9.80;4.88;;;;;;;;;;10370466;28;20076;-74
2024/02/17 18:08:35;;;;;;;7.13;4.80;;;;;;;;;;10385369;28;20059;-74
2024/02/17 18:13:39;;;;;;;6.50;4.20;;;;;;;;;;10382249;28;20045;-74
2024/02/17 18:18:43;;;;;;;6.63;4.07;;;;;;;;;;10390543;28;20041;-74
2024/02/17 18:23:47;;;;;;;7.00;3.97;;;;;;;;;;10381682;28;20415;-74
2024/02/17 18:28:50;;;;;;;7.47;4.95;;;;;;;;;;10383994;28;20048;-75
2024/02/17 18:33:55;;;;;;;7.13;4.13;;;;;;;;;;10389390;28;20056;-74
2024/02/17 18:38:58;;;;;;;7.25;3.97;;;;;;;;;;10375732;28;20046;-74
2024/02/17 18:44:06;;;;;;;7.53;3.90;;;;;;;;;;10379241;28;20057;-75
2024/02/17 18:49:10;;;;;;;6.85;4.28;;;;;;;;;;10378287;28;20053;-75
2024/02/17 18:54:14;;;;;;;6.78;4.25;;;;;;;;;;10375115;28;20045;-75
2024/02/17 18:59:19;;;;;;;6.65;3.97;;;;;;;;;;10371093;28;20585;-74
2024/02/17 19:04:24;;;;;;;8.05;4.28;;;;;;;;;;10375344;28;20066;-75
2024/02/17 19:09:29;;;;;;;10.07;5.53;;;;;;;;;;10382960;28;20045;-74
2024/02/17 19:14:33;;;;;;;9.82;6.28;;;;;;;;;;10379848;28;20130;-75
2024/02/17 19:19:37;;;;;;;11.48;6.18;;;;;;;;;;10379843;28;20053;-74
2024/02/17 19:24:41;;;;;;;8.20;5.07;;;;;;;;;;10378908;28;20067;-74
2024/02/17 19:29:44;;;;;;;8.98;5.68;;;;;;;;;;10383438;28;20133;-74
2024/02/17 19:34:49;;;;;;;7.68;5.20;;;;;;;;;;10386246;28;20041;-74
2024/02/17 19:39:52;;;;;;;6.80;4.20;;;;;;;;;;10376036;28;20046;-74
2024/02/17 19:44:56;;;;;;;4.03;2.90;;;;;;;;;;10374334;28;20129;-74
2024/02/17 19:50:01;;;;;;;4.85;3.17;;;;;;;;;;10373316;28;20187;-74
2024/02/17 19:55:05;;;;;;;6.55;3.72;;;;;;;;;;10370163;28;20064;-75
2024/02/17 20:00:09;;;;;;;4.78;3.55;;;;;;;;;;10370452;28;20057;-74
2024/02/17 20:05:17;;;;;;;5.00;3.13;;;;;;;;;;10370550;28;20418;-74
2024/02/17 20:10:20;;;;;;;5.38;3.58;;;;;;;;;;10379766;28;20049;-74
2024/02/17 20:15:24;;;;;;;5.93;4.20;;;;;;;;;;10392149;28;20116;-74
2024/02/17 20:20:28;;;;;;;6.93;3.95;;;;;;;;;;10392319;28;20081;-75
2024/02/17 20:25:31;;;;;;;6.65;4.55;;;;;;;;;;10374415;28;20076;-74
2024/02/17 20:30:35;;;;;;;7.32;4.47;;;;;;;;;;10377787;28;20049;-74
2024/02/17 20:35:39;;;;;;;6.53;3.78;;;;;;;;;;10376970;28;20049;-74
2024/02/17 20:40:43;;;;;;;6.38;3.83;;;;;;;;;;10374593;28;20128;-75
2024/02/17 20:45:48;;;;;;;4.60;3.42;;;;;;;;;;10372028;28;20133;-75
2024/02/17 20:50:53;;;;;;;5.97;3.35;;;;;;;;;;10376203;28;20103;-75
2024/02/17 20:55:56;;;;;;;7.40;4.03;;;;;;;;;;10392421;28;20404;-74
2024/02/17 21:00:59;;;;;;;4.55;3.53;;;;;;;;;;10369359;28;20558;-75
2024/02/17 21:06:05;;;;;;;7.43;3.67;;;;;;;;;;10393009;28;20092;-75
2024/02/17 21:11:09;;;;;;;6.25;4.05;;;;;;;;;;10380108;28;20408;-74
2024/02/17 21:16:13;;;;;;;5.78;4.00;;;;;;;;;;10398524;28;20068;-75
2024/02/17 21:21:24;;;;;;;6.70;4.03;;;;;;;;;;10372583;28;20606;-75
2024/02/17 21:26:27;;;;;;;6.70;3.70;;;;;;;;;;10375349;28;20058;-74
2024/02/17 21:31:31;;;;;;;5.82;3.83;;;;;;;;;;10377206;28;20134;-75
2024/02/17 21:36:39;;;;;;;7.05;4.60;;;;;;;;;;10381381;28;20132;-75
2024/02/17 21:41:42;;;;;;;7.22;4.07;;;;;;;;;;10382953;28;20068;-75
2024/02/17 21:46:46;;;;;;;4.95;3.70;;;;;;;;;;10383500;28;20047;-74
2024/02/17 21:51:50;;;;;;;4.97;3.17;;;;;;;;;;10387421;28;20045;-74
2024/02/17 21:56:54;;;;;;;5.80;3.60;;;;;;;;;;10383674;28;20050;-75
2024/02/17 22:01:57;;;;;;;5.30;3.10;;;;;;;;;;10380717;28;20397;-74
2024/02/17 22:07:02;;;;;;;4.60;3.53;;;;;;;;;;10385083;28;20068;-75
2024/02/17 22:12:05;;;;;;;5.47;3.78;;;;;;;;;;10400608;28;20042;-74
2024/02/17 22:17:09;;;;;;;5.72;4.10;;;;;;;;;;10381531;28;20042;-74
2024/02/17 22:22:13;;;;;;;6.15;3.95;;;;;;;;;;10392668;28;20045;-75
2024/02/17 22:27:16;;;;;;;5.63;3.88;;;;;;;;;;10384853;28;20037;-74
2024/02/17 22:32:20;;;;;;;5.35;4.15;;;;;;;;;;10375292;28;20082;-74
2024/02/17 22:37:24;;;;;;;5.05;3.55;;;;;;;;;;10376863;28;20052;-74
2024/02/17 22:42:28;;;;;;;5.18;3.70;;;;;;;;;;10373090;28;20150;-74
2024/02/17 22:47:31;;;;;;;5.22;3.70;;;;;;;;;;10364869;28;20126;-75
2024/02/17 22:52:36;;;;;;;4.45;3.45;;;;;;;;;;10384649;28;20573;-74
2024/02/17 22:57:39;;;;;;;5.00;3.83;;;;;;;;;;10379563;28;20454;-74
2024/02/17 23:02:42;;;;;;;4.43;3.67;;;;;;;;;;10372511;28;20061;-75
2024/02/17 23:07:47;;;;;;;5.65;3.58;;;;;;;;;;10365334;28;20093;-74
2024/02/17 23:12:51;;;;;;;5.18;3.63;;;;;;;;;;10419927;23;20055;-73
2024/02/17 23:17:55;;;;;;;4.03;3.20;;;;;;;;;;10458366;28;20036;-73
2024/02/17 23:23:02;;;;;;;3.78;2.92;;;;;;;;;;10450016;28;20130;-73
2024/02/17 23:28:06;;;;;;;4.40;3.05;;;;;;;;;;10447603;28;20102;-73
2024/02/17 23:33:09;;;;;;;4.93;3.35;;;;;;;;;;10448348;28;20110;-73
2024/02/17 23:38:14;;;;;;;5.15;3.03;;;;;;;;;;10454412;28;20456;-74
2024/02/17 23:43:17;;;;;;;3.80;3.05;;;;;;;;;;10432214;28;20083;-73
2024/02/17 23:48:21;;;;;;;4.70;2.97;;;;;;;;;;10452762;28;20053;-73
2024/02/17 23:53:25;;;;;;;3.63;2.80;;;;;;;;;;10453343;28;20127;-73
2024/02/17 23:58:29;;;;;;;3.50;3.00;;;;;;;;;;10445353;28;20159;-73
